createdAt,value
2019-02-15T06:35:07.504Z,58.07
2019-02-15T06:40:51.666Z,61.60
2019-02-15T06:43:23.513Z,89.37
2019-02-15T06:45:57.114Z,84.40
2019-02-15T06:48:27.359Z,84.40
2019-02-15T06:50:59.937Z,77.17
2019-02-15T06:53:35.471Z,80.63
2019-02-15T06:56:06.117Z,99.43
2019-02-15T06:58:45.619Z,87.33
2019-02-15T07:01:23.865Z,90.33
2019-02-15T07:04:02.893Z,80.13
2019-02-15T07:06:33.310Z,74.77
2019-02-15T07:09:05.786Z,67.27
2019-02-15T07:11:36.106Z,67.63
2019-02-15T07:14:04.887Z,84.77
2019-02-15T07:16:35.715Z,93.47
2019-02-15T07:21:35.542Z,63.67
2019-02-15T07:26:35.777Z,56.43
2019-02-15T07:31:35.612Z,53.57
2019-02-15T07:36:35.128Z,50.60
2019-02-15T07:41:35.074Z,58.10
2019-02-15T07:44:05.485Z,52.80
2019-02-15T07:46:39.701Z,56.00
2019-02-15T07:49:10.853Z,59.60
2019-02-15T07:54:09.444Z,58.50
2019-02-15T07:59:08.038Z,49.17
2019-02-15T08:01:46.979Z,50.00
2019-02-15T08:04:16.778Z,49.13
2019-02-15T08:06:46.902Z,60.30
2019-02-15T08:09:20.515Z,61.17
2019-02-15T08:11:51.652Z,48.73
2019-02-15T08:14:21.892Z,50.40
2019-02-15T08:16:53.121Z,54.70
2019-02-15T08:19:25.794Z,49.43
2019-02-15T08:21:55.904Z,42.17
2019-02-15T08:24:26.350Z,48.47
2019-02-15T08:52:45.463Z,45.27
2019-02-15T08:55:15.385Z,40.23
2019-02-15T08:57:44.576Z,42.80
2019-02-15T09:22:40.363Z,39.23
2019-02-15T09:25:09.743Z,39.33
2019-02-15T09:27:47.852Z,34.70
2019-02-15T09:30:22.061Z,36.33
2019-02-15T09:32:51.152Z,34.57
2019-02-15T09:35:20.101Z,33.20
2019-02-15T09:37:49.051Z,35.57
2019-02-15T09:47:44.294Z,36.17
2019-02-15T09:50:14.511Z,39.47
2019-02-15T09:55:13.926Z,31.33
2019-02-15T09:57:43.980Z,39.33
2019-02-15T10:00:14.112Z,39.70
2019-02-15T10:05:13.282Z,33.07
2019-02-15T10:07:43.502Z,36.03
2019-02-15T10:10:14.113Z,34.33
2019-02-15T10:15:13.871Z,42.90
2019-02-15T10:17:44.380Z,27.80
2019-02-15T10:22:43.810Z,30.63
2019-02-15T10:25:13.933Z,34.33
2019-02-15T10:27:44.766Z,48.10
2019-02-15T10:30:15.802Z,33.67
2019-02-15T10:32:46.842Z,26.07
2019-02-15T10:35:16.758Z,41.40
2019-02-15T10:37:50.252Z,39.33
2019-02-15T10:40:20.103Z,29.40
2019-02-15T10:42:50.412Z,31.80
2019-02-15T10:45:20.813Z,29.67
2019-02-15T10:52:52.112Z,39.87
2019-02-15T10:55:21.084Z,32.10
2019-02-15T10:57:51.610Z,29.77
2019-02-15T11:07:50.451Z,32.73
2019-02-15T11:12:49.671Z,31.43
2019-02-15T11:15:20.851Z,29.10
2019-02-15T11:18:00.472Z,32.63
2019-02-15T11:20:53.120Z,33.03
2019-02-15T11:26:56.212Z,33.47
2019-02-15T11:29:25.940Z,33.17
2019-02-15T11:31:59.522Z,46.53
2019-02-15T11:34:29.852Z,34.97
2019-02-15T11:39:27.533Z,33.70
2019-02-15T11:41:56.333Z,45.60
2019-02-15T11:44:26.432Z,52.33
2019-02-15T11:46:56.876Z,34.07
2019-02-15T11:49:26.660Z,31.27
2019-02-15T11:51:55.773Z,42.40
2019-02-15T11:54:25.473Z,30.57
2019-02-15T11:59:23.872Z,31.70
2019-02-15T12:04:22.773Z,25.83
2019-02-15T12:06:51.663Z,36.00
2019-02-15T12:09:23.735Z,25.60
2019-02-15T12:11:52.822Z,22.30
2019-02-15T12:14:23.655Z,21.37
2019-02-15T12:19:21.432Z,25.47
2019-02-15T12:21:49.920Z,22.53
2019-02-15T12:24:19.723Z,28.10
2019-02-15T12:26:48.623Z,28.87
2019-02-15T12:29:18.953Z,32.50
2019-02-15T12:31:48.752Z,24.27
2019-02-15T12:36:51.132Z,42.60
2019-02-15T12:39:19.934Z,23.73
2019-02-15T12:41:50.458Z,31.60
2019-02-15T12:44:19.453Z,21.30
2019-02-15T12:46:49.789Z,17.60
2019-02-15T12:49:19.682Z,17.30
2019-02-15T12:51:51.101Z,31.57
2019-02-15T12:54:21.893Z,17.07
2019-02-15T12:56:52.513Z,15.90
2019-02-15T12:59:26.928Z,21.53
2019-02-15T13:02:13.438Z,17.90
2019-02-15T13:04:47.543Z,25.00
2019-02-15T13:07:23.613Z,35.97
2019-02-15T13:09:55.862Z,17.73
2019-02-15T13:14:59.122Z,20.43
2019-02-15T13:17:29.194Z,22.53
2019-02-15T13:19:59.317Z,15.60
2019-02-15T13:22:29.662Z,26.27
2019-02-15T13:24:59.442Z,20.03
2019-02-15T13:27:29.692Z,21.90
2019-02-15T13:32:28.379Z,29.70
2019-02-15T13:34:58.486Z,20.77
2019-02-15T13:37:35.780Z,22.43
2019-02-15T13:40:11.114Z,33.37
2019-02-15T13:42:41.128Z,20.87
2019-02-15T13:45:17.499Z,26.77
2019-02-15T13:47:52.460Z,17.50
2019-02-15T14:05:34.756Z,89.77
2019-02-15T14:08:07.623Z,87.87
2019-02-15T14:10:38.450Z,27.77
2019-02-15T14:13:12.380Z,40.70
2019-02-15T14:21:45.908Z,37.53
2019-02-15T14:24:19.909Z,30.47
2019-02-15T14:36:46.837Z,37.73
2019-02-15T14:39:18.064Z,47.03
2019-02-15T14:41:49.518Z,46.93
2019-02-15T14:51:46.845Z,33.43
2019-02-15T14:54:17.468Z,30.80
2019-02-15T14:56:55.197Z,30.70
2019-02-15T15:02:34.428Z,32.37
2019-02-15T15:05:09.868Z,39.90
2019-02-15T15:07:42.572Z,39.20
2019-02-15T15:16:03.089Z,38.53
2019-02-15T15:18:37.364Z,39.90
2019-02-15T15:21:07.916Z,34.60
2019-02-15T15:23:38.878Z,41.13
2019-02-15T15:46:58.965Z,42.10
2019-02-15T15:57:44.111Z,60.67
2019-02-15T16:29:55.864Z,59.47
2019-02-15T16:32:26.804Z,63.80
2019-02-15T16:34:59.276Z,54.37
2019-02-15T16:37:34.748Z,57.70
2019-02-15T16:47:51.678Z,84.37
2019-02-15T16:50:22.510Z,76.47
2019-02-15T16:52:53.468Z,63.90
2019-02-15T16:55:24.716Z,50.80
2019-02-15T16:57:56.876Z,58.63
2019-02-15T17:00:37.436Z,47.70
2019-02-15T17:03:10.428Z,55.00
2019-02-15T17:05:45.076Z,62.03
2019-02-15T17:08:44.876Z,62.33
2019-02-15T17:11:38.451Z,77.47
2019-02-15T17:20:51.901Z,81.77
2019-02-15T17:40:48.249Z,73.80
2019-02-15T17:51:43.590Z,85.13
2019-02-15T17:54:14.844Z,77.83
2019-02-15T17:56:46.108Z,70.13
2019-02-15T17:59:41.156Z,64.40
2019-02-15T18:04:47.509Z,61.57
2019-02-15T18:07:18.926Z,59.40
2019-02-15T18:13:14.928Z,54.87
2019-02-15T18:18:27.513Z,55.40
2019-02-15T18:20:59.878Z,56.67
2019-02-15T18:23:38.511Z,52.57
2019-02-15T18:26:11.997Z,52.47
2019-02-15T18:28:44.684Z,49.33
2019-02-15T18:31:17.286Z,56.90
2019-02-15T18:33:49.844Z,56.57
2019-02-15T18:36:42.924Z,57.53
2019-02-15T18:39:20.076Z,82.23
2019-02-15T18:42:09.436Z,74.40
2019-02-15T18:47:19.917Z,82.50
2019-02-15T18:50:02.876Z,99.43
2019-02-15T18:55:22.924Z,98.40
2019-02-15T18:57:53.997Z,102.50
2019-02-15T19:21:07.338Z,96.37
2019-02-15T19:26:06.756Z,90.57
2019-02-15T19:28:36.049Z,108.90
2019-02-15T19:31:12.000Z,103.87
2019-02-15T19:33:47.445Z,111.03
2019-02-15T19:36:17.764Z,77.17
2019-02-15T19:38:52.119Z,71.60
2019-02-15T19:41:22.844Z,79.77
2019-02-15T19:43:56.103Z,85.17
2019-02-15T19:46:28.701Z,86.20
2019-02-15T19:49:00.974Z,79.03
2019-02-15T19:54:13.079Z,80.33
2019-02-15T19:56:54.365Z,79.97
2019-02-15T19:59:24.908Z,84.50
2019-02-15T20:04:23.718Z,71.37
2019-02-15T20:06:53.005Z,67.63
2019-02-15T20:09:23.240Z,61.70
2019-02-15T20:14:22.843Z,54.67
2019-02-15T20:16:51.724Z,51.60
2019-02-15T20:19:23.087Z,54.47
2019-02-15T20:21:53.803Z,58.77
2019-02-15T20:27:20.245Z,48.53
2019-02-15T20:29:58.678Z,60.37
2019-02-15T20:32:34.116Z,56.73
2019-02-15T20:40:24.964Z,54.97
2019-02-15T20:43:02.743Z,56.57
2019-02-15T20:48:03.934Z,52.83
2019-02-15T20:51:03.724Z,56.53
2019-02-15T20:53:35.712Z,54.63
2019-02-15T20:56:12.350Z,56.30
2019-02-15T20:59:06.116Z,66.07
2019-02-15T21:01:38.399Z,78.90
2019-02-15T21:04:27.372Z,95.50
2019-02-15T21:07:02.399Z,85.23
2019-02-15T21:09:44.396Z,83.27
2019-02-15T21:12:43.304Z,81.67
2019-02-15T21:15:25.484Z,92.30
2019-02-15T21:18:02.764Z,88.57
2019-02-15T21:20:33.821Z,86.20
2019-02-15T21:23:04.962Z,77.27
2019-02-15T21:25:38.364Z,86.67
2019-02-15T21:28:15.636Z,79.83
2019-02-15T21:31:02.988Z,81.57
2019-02-15T21:34:02.788Z,74.57
2019-02-15T21:36:41.795Z,76.50
2019-02-15T21:39:28.312Z,81.37
2019-02-15T21:42:08.773Z,86.07
2019-02-15T21:44:47.913Z,79.03
2019-02-15T21:47:20.475Z,70.73
2019-02-15T21:49:53.263Z,79.53
2019-02-15T21:52:43.529Z,88.10
2019-02-15T21:55:08.438Z,77.23
2019-02-15T21:57:40.308Z,83.83
2019-02-15T22:00:12.789Z,91.90
2019-02-15T22:10:34.996Z,75.87
2019-02-15T22:13:09.876Z,73.97
2019-02-15T22:20:53.383Z,81.60
2019-02-15T22:23:27.472Z,82.03
2019-02-15T22:26:14.382Z,83.00
2019-02-15T22:31:46.376Z,71.10
2019-02-15T22:34:21.802Z,76.33
2019-02-15T22:37:14.104Z,74.23
2019-02-15T22:59:31.515Z,78.53
2019-02-15T23:02:02.634Z,82.13
2019-02-15T23:04:32.756Z,78.23
2019-02-15T23:07:04.644Z,84.10
2019-02-15T23:09:54.312Z,89.43
2019-02-15T23:12:29.035Z,88.77
2019-02-15T23:15:05.501Z,101.20
2019-02-15T23:17:42.794Z,109.93
2019-02-15T23:20:15.888Z,99.27
2019-02-15T23:22:46.895Z,91.47
2019-02-15T23:25:25.110Z,91.17
2019-02-15T23:27:54.810Z,81.67
2019-02-15T23:30:27.507Z,82.50
2019-02-15T23:33:17.314Z,77.07
2019-02-15T23:35:49.439Z,80.93
2019-02-15T23:38:24.280Z,78.80
2019-02-15T23:40:58.093Z,85.93
2019-02-15T23:43:28.618Z,77.90
2019-02-15T23:46:02.208Z,86.07
2019-02-15T23:51:48.724Z,88.10
2019-02-15T23:54:17.521Z,95.43
2019-02-15T23:56:48.094Z,104.50
2019-02-15T23:59:18.465Z,92.23
